Time,TemperatureF,DewpointF,PressureIn,WindDirection,WindDirectionDegrees,WindSpeedMPH,WindSpeedGustMPH,Humidity,HourlyPrecipIn,Conditions,Clouds,dailyrainin,SolarRadiationWatts/m^2,SoftwareType,DateUTC
2013-07-10 00:11:00,53.0,49.0,-100.00,NNE,32,0.0,2.0,86,0.00,,,0.00,0.000000,,2013-07-10 07:11:00,
2013-07-10 00:22:00,53.0,49.0,-100.00,NNE,32,0.0,2.0,86,0.00,,,0.00,0.000000,,2013-07-10 07:22:00,
2013-07-10 00:32:00,53.0,49.0,-100.00,NNE,32,0.0,2.0,86,0.00,,,0.00,0.000000,,2013-07-10 07:32:00,
2013-07-10 00:43:00,53.0,49.0,-100.00,NNE,32,0.0,2.0,86,0.00,,,0.00,0.000000,,2013-07-10 07:43:00,
2013-07-10 00:52:00,51.0,47.0,-100.00,NNE,25,0.0,2.0,87,0.00,,,0.00,0.000000,,2013-07-10 07:52:00,
2013-07-10 01:11:00,51.0,47.0,-100.00,NNE,25,0.0,2.0,87,0.00,,,0.00,0.000000,,2013-07-10 08:11:00,
2013-07-10 01:22:00,51.0,47.0,-100.00,NNE,25,0.0,2.0,87,0.00,,,0.00,0.000000,,2013-07-10 08:22:00,
2013-07-10 01:33:00,51.0,47.0,-100.00,NNE,25,0.0,2.0,87,0.00,,,0.00,0.000000,,2013-07-10 08:33:00,
2013-07-10 01:42:00,51.0,47.0,-100.00,NNE,25,0.0,2.0,87,0.00,,,0.00,0.000000,,2013-07-10 08:42:00,
2013-07-10 01:52:00,49.0,46.0,-100.00,NNE,33,0.0,2.0,90,0.00,,,0.00,0.000000,,2013-07-10 08:52:00,
2013-07-10 02:12:00,49.0,46.0,-100.00,NNE,33,0.0,2.0,90,0.00,,,0.00,0.000000,,2013-07-10 09:12:00,
2013-07-10 02:22:00,49.0,46.0,-100.00,NNE,33,0.0,2.0,90,0.00,,,0.00,0.000000,,2013-07-10 09:22:00,
2013-07-10 02:32:00,49.0,46.0,-100.00,NNE,33,0.0,2.0,90,0.00,,,0.00,0.000000,,2013-07-10 09:32:00,
2013-07-10 02:42:00,49.0,46.0,-100.00,NNE,33,0.0,2.0,90,0.00,,,0.00,0.000000,,2013-07-10 09:42:00,
2013-07-10 02:52:00,-999.0,-99.9,-100.00,NNE,31,0.0,2.0,-999,-99.99,,,-99.99,0.000000,,2013-07-10 09:52:00,
2013-07-10 03:23:00,47.0,45.0,-100.00,NNE,31,0.0,2.0,92,0.00,,,0.00,0.000000,,2013-07-10 10:23:00,
2013-07-10 03:32:00,47.0,45.0,-100.00,NNE,31,0.0,2.0,92,0.00,,,0.00,0.000000,,2013-07-10 10:32:00,
2013-07-10 03:50:00,-999.0,-99.9,-100.00,NNE,31,0.0,2.0,-999,-99.99,,,-99.99,0.000000,,2013-07-10 10:50:00,
2013-07-10 03:52:00,46.0,44.0,-100.00,NE,52,0.0,2.0,93,0.00,,,0.00,0.000000,,2013-07-10 10:52:00,
2013-07-10 04:11:00,46.0,44.0,-100.00,NE,52,0.0,2.0,93,0.00,,,0.00,0.000000,,2013-07-10 11:11:00,
2013-07-10 04:22:00,46.0,44.0,-100.00,NE,52,0.0,2.0,93,0.00,,,0.00,0.000000,,2013-07-10 11:22:00,
2013-07-10 04:33:00,46.0,44.0,-100.00,NE,52,0.0,2.0,93,0.00,,,0.00,0.000000,,2013-07-10 11:33:00,
2013-07-10 04:43:00,46.0,44.0,-100.00,NE,52,0.0,2.0,93,0.00,,,0.00,0.000000,,2013-07-10 11:43:00,
2013-07-10 06:52:00,47.0,45.0,-100.00,NE,35,0.0,1.0,94,-99.99,,,0.00,22.000000,,2013-07-10 13:52:00,
2013-07-10 07:22:00,47.0,45.0,-100.00,NE,35,0.0,1.0,94,-99.99,,,0.00,22.000000,,2013-07-10 14:22:00,
2013-07-10 07:52:00,55.0,52.0,-100.00,NE,45,0.0,1.0,88,0.00,,,0.00,128.000000,,2013-07-10 14:52:00,
2013-07-10 08:22:00,55.0,52.0,-100.00,NE,45,0.0,1.0,88,0.00,,,0.00,128.000000,,2013-07-10 15:22:00,
2013-07-10 08:34:00,55.0,52.0,-100.00,NE,45,0.0,1.0,88,0.00,,,0.00,128.000000,,2013-07-10 15:34:00,
2013-07-10 08:42:00,55.0,52.0,-100.00,NE,45,0.0,1.0,88,0.00,,,0.00,128.000000,,2013-07-10 15:42:00,
2013-07-10 08:52:00,67.0,56.0,-100.00,East,79,0.0,2.0,69,0.00,,,0.00,460.000000,,2013-07-10 15:52:00,
2013-07-10 09:33:00,67.0,56.0,-100.00,East,79,0.0,2.0,69,0.00,,,0.00,460.000000,,2013-07-10 16:33:00,
2013-07-10 09:44:00,67.0,56.0,-100.00,East,79,0.0,2.0,69,0.00,,,0.00,460.000000,,2013-07-10 16:44:00,
2013-07-10 09:52:00,75.0,52.0,-100.00,East,89,0.0,2.0,45,0.00,,,0.00,609.000000,,2013-07-10 16:52:00,
2013-07-10 10:11:00,75.0,52.0,-100.00,East,89,0.0,2.0,45,0.00,,,0.00,609.000000,,2013-07-10 17:11:00,
2013-07-10 10:23:00,75.0,52.0,-100.00,East,89,0.0,2.0,45,0.00,,,0.00,609.000000,,2013-07-10 17:23:00,
2013-07-10 10:32:00,75.0,52.0,-100.00,East,89,0.0,2.0,45,0.00,,,0.00,609.000000,,2013-07-10 17:32:00,
2013-07-10 10:42:00,75.0,52.0,-100.00,East,89,0.0,2.0,45,0.00,,,0.00,609.000000,,2013-07-10 17:42:00,
2013-07-10 10:52:00,81.0,50.0,-100.00,SE,146,1.0,5.0,34,0.00,,,0.00,355.000000,,2013-07-10 17:52:00,
2013-07-10 11:21:00,81.0,50.0,-100.00,SE,146,1.0,5.0,34,0.00,,,0.00,355.000000,,2013-07-10 18:21:00,
2013-07-10 11:32:00,81.0,50.0,-100.00,SE,146,1.0,5.0,34,0.00,,,0.00,355.000000,,2013-07-10 18:32:00,
2013-07-10 11:44:00,81.0,50.0,-100.00,SE,146,1.0,5.0,34,0.00,,,0.00,355.000000,,2013-07-10 18:44:00,
2013-07-10 11:52:00,89.0,50.0,-100.00,NE,48,2.0,7.0,26,0.00,,,0.00,832.000000,,2013-07-10 18:52:00,
2013-07-10 12:11:00,89.0,50.0,-100.00,NE,48,2.0,7.0,26,0.00,,,0.00,832.000000,,2013-07-10 19:11:00,
2013-07-10 12:21:00,89.0,50.0,-100.00,NE,48,2.0,7.0,26,0.00,,,0.00,832.000000,,2013-07-10 19:21:00,
2013-07-10 12:32:00,89.0,50.0,-100.00,NE,48,2.0,7.0,26,0.00,,,0.00,832.000000,,2013-07-10 19:32:00,
2013-07-10 12:42:00,89.0,50.0,-100.00,NE,48,2.0,7.0,26,0.00,,,0.00,832.000000,,2013-07-10 19:42:00,
2013-07-10 12:52:00,91.0,48.0,-100.00,SSE,147,2.0,8.0,23,0.00,,,0.00,879.000000,,2013-07-10 19:52:00,
2013-07-10 13:22:00,91.0,48.0,-100.00,SSE,147,2.0,8.0,23,0.00,,,0.00,879.000000,,2013-07-10 20:22:00,
2013-07-10 13:32:00,91.0,48.0,-100.00,SSE,147,2.0,8.0,23,0.00,,,0.00,879.000000,,2013-07-10 20:32:00,
2013-07-10 13:43:00,91.0,48.0,-100.00,SSE,147,2.0,8.0,23,0.00,,,0.00,879.000000,,2013-07-10 20:43:00,
2013-07-10 13:52:00,91.0,49.0,-100.00,NNW,338,2.0,7.0,24,0.00,,,0.00,876.000000,,2013-07-10 20:52:00,
2013-07-10 14:11:00,91.0,49.0,-100.00,NNW,338,2.0,7.0,24,0.00,,,0.00,876.000000,,2013-07-10 21:11:00,
2013-07-10 14:22:00,91.0,49.0,-100.00,NNW,338,2.0,7.0,24,0.00,,,0.00,876.000000,,2013-07-10 21:22:00,
2013-07-10 14:32:00,91.0,49.0,-100.00,NNW,338,2.0,7.0,24,0.00,,,0.00,876.000000,,2013-07-10 21:32:00,
2013-07-10 14:41:00,91.0,49.0,-100.00,NNW,338,2.0,7.0,24,0.00,,,0.00,876.000000,,2013-07-10 21:41:00,
2013-07-10 14:52:00,92.0,48.0,-100.00,NE,37,2.0,11.0,22,0.00,,,0.00,823.000000,,2013-07-10 21:52:00,
2013-07-10 15:11:00,92.0,48.0,-100.00,NE,37,2.0,11.0,22,0.00,,,0.00,823.000000,,2013-07-10 22:11:00,
2013-07-10 15:21:00,92.0,48.0,-100.00,NE,37,2.0,11.0,22,0.00,,,0.00,823.000000,,2013-07-10 22:21:00,
2013-07-10 15:33:00,92.0,48.0,-100.00,NE,37,2.0,11.0,22,0.00,,,0.00,823.000000,,2013-07-10 22:33:00,
2013-07-10 15:42:00,92.0,48.0,-100.00,NE,37,2.0,11.0,22,0.00,,,0.00,823.000000,,2013-07-10 22:42:00,
2013-07-10 16:52:00,89.0,45.0,-100.00,NNW,330,2.0,10.0,22,0.00,,,0.00,365.000000,,2013-07-10 23:52:00,
2013-07-10 17:22:00,89.0,45.0,-100.00,NNW,330,2.0,10.0,22,0.00,,,0.00,365.000000,,2013-07-11 00:22:00,
2013-07-10 17:32:00,89.0,45.0,-100.00,NNW,330,2.0,10.0,22,0.00,,,0.00,365.000000,,2013-07-11 00:32:00,
2013-07-10 17:42:00,89.0,45.0,-100.00,NNW,330,2.0,10.0,22,0.00,,,0.00,365.000000,,2013-07-11 00:42:00,
2013-07-10 17:52:00,87.0,47.0,-100.00,WSW,255,1.0,7.0,25,0.00,,,0.00,100.000000,,2013-07-11 00:52:00,
2013-07-10 18:22:00,87.0,47.0,-100.00,WSW,255,1.0,7.0,25,0.00,,,0.00,100.000000,,2013-07-11 01:22:00,
2013-07-10 18:32:00,87.0,47.0,-100.00,WSW,255,1.0,7.0,25,0.00,,,0.00,100.000000,,2013-07-11 01:32:00,
2013-07-10 18:43:00,87.0,47.0,-100.00,WSW,255,1.0,7.0,25,0.00,,,0.00,100.000000,,2013-07-11 01:43:00,
2013-07-10 18:52:00,82.0,52.0,-100.00,SE,141,1.0,6.0,36,0.00,,,0.00,43.000000,,2013-07-11 01:52:00,
2013-07-10 19:22:00,82.0,52.0,-100.00,SE,141,1.0,6.0,36,0.00,,,0.00,43.000000,,2013-07-11 02:22:00,
2013-07-10 19:32:00,82.0,52.0,-100.00,SE,141,1.0,6.0,36,0.00,,,0.00,43.000000,,2013-07-11 02:32:00,
2013-07-10 19:43:00,82.0,52.0,-100.00,SE,141,1.0,6.0,36,0.00,,,0.00,43.000000,,2013-07-11 02:43:00,
2013-07-10 19:52:00,74.0,58.0,-100.00,North,2,1.0,4.0,57,0.00,,,0.00,24.000000,,2013-07-11 02:52:00,
2013-07-10 20:33:00,74.0,58.0,-100.00,North,2,1.0,4.0,57,0.00,,,0.00,24.000000,,2013-07-11 03:33:00,
2013-07-10 20:42:00,74.0,58.0,-100.00,North,2,1.0,4.0,57,0.00,,,0.00,24.000000,,2013-07-11 03:42:00,
2013-07-10 20:52:00,67.0,58.0,-100.00,NNE,32,1.0,3.0,73,0.00,,,0.00,7.000000,,2013-07-11 03:52:00,
2013-07-10 21:32:00,67.0,58.0,-100.00,NNE,32,1.0,3.0,73,0.00,,,0.00,7.000000,,2013-07-11 04:32:00,
2013-07-10 21:42:00,67.0,58.0,-100.00,NNE,32,1.0,3.0,73,0.00,,,0.00,7.000000,,2013-07-11 04:42:00,
2013-07-10 21:52:00,62.0,56.0,-100.00,NNE,23,0.0,2.0,81,0.00,,,0.00,0.000000,,2013-07-11 04:52:00,
2013-07-10 22:22:00,62.0,56.0,-100.00,NNE,23,0.0,2.0,81,0.00,,,0.00,0.000000,,2013-07-11 05:22:00,
2013-07-10 22:32:00,62.0,56.0,-100.00,NNE,23,0.0,2.0,81,0.00,,,0.00,0.000000,,2013-07-11 05:32:00,
2013-07-10 22:43:00,62.0,56.0,-100.00,NNE,23,0.0,2.0,81,0.00,,,0.00,0.000000,,2013-07-11 05:43:00,
2013-07-10 22:52:00,60.0,55.0,-100.00,NE,46,0.0,2.0,85,0.00,,,0.00,0.000000,,2013-07-11 05:52:00,
2013-07-10 23:11:00,60.0,55.0,-100.00,NE,46,0.0,2.0,85,0.00,,,0.00,0.000000,,2013-07-11 06:11:00,
2013-07-10 23:22:00,60.0,55.0,-100.00,NE,46,0.0,2.0,85,0.00,,,0.00,0.000000,,2013-07-11 06:22:00,
2013-07-10 23:32:00,60.0,55.0,-100.00,NE,46,0.0,2.0,85,0.00,,,0.00,0.000000,,2013-07-11 06:32:00,
2013-07-10 23:43:00,60.0,55.0,-100.00,NE,46,0.0,2.0,85,0.00,,,0.00,0.000000,,2013-07-11 06:43:00,
2013-07-10 23:52:00,57.0,54.0,-100.00,NNE,29,0.0,2.0,89,0.00,,,0.00,0.000000,,2013-07-11 06:52:00,